createdAt,value
2018-11-27T00:03:49.334Z,8.33
2018-11-27T00:09:44.351Z,7.72
2018-11-27T00:15:39.318Z,7.91
2018-11-27T00:21:34.419Z,8.64
2018-11-27T00:27:29.329Z,7.27
2018-11-27T00:33:24.362Z,8.53
2018-11-27T00:39:19.353Z,7.54
2018-11-27T00:45:14.337Z,7.99
2018-11-27T00:51:09.376Z,7.7
2018-11-27T00:57:04.348Z,8.14
2018-11-27T01:02:59.383Z,7.29
2018-11-27T01:08:54.345Z,7.47
2018-11-27T01:14:49.383Z,7.89
2018-11-27T01:20:44.420Z,7.28
2018-11-27T01:26:39.415Z,6.12
2018-11-27T01:32:34.377Z,8.79
2018-11-27T01:38:29.398Z,7.93
2018-11-27T01:44:24.404Z,7.43
2018-11-27T01:50:19.371Z,8.22
2018-11-27T01:56:14.424Z,8.55
2018-11-27T02:02:09.395Z,7.95
2018-11-27T02:08:04.396Z,6.99
2018-11-27T02:13:59.417Z,6.91
2018-11-27T02:19:54.389Z,7.63
2018-11-27T02:25:49.405Z,7.14
2018-11-27T02:31:44.406Z,6.56
2018-11-27T02:37:39.414Z,5.49
2018-11-27T02:43:34.473Z,7.17
2018-11-27T02:49:29.427Z,7.15
2018-11-27T02:55:24.430Z,6.5
2018-11-27T03:01:19.421Z,6.77
2018-11-27T03:07:14.424Z,5.83
2018-11-27T03:13:09.470Z,5.32
2018-11-27T03:19:04.445Z,5.36
2018-11-27T03:24:59.469Z,5.19
2018-11-27T03:30:54.436Z,4.81
2018-11-27T03:36:49.467Z,5.93
2018-11-27T03:42:44.452Z,5.29
2018-11-27T03:48:39.486Z,4.3
2018-11-27T03:54:34.449Z,4.84
2018-11-27T04:00:29.463Z,4.02
2018-11-27T04:06:24.481Z,5.18
2018-11-27T04:12:19.476Z,5.34
2018-11-27T04:18:14.476Z,5.18
2018-11-27T04:24:09.494Z,4.96
2018-11-27T04:30:04.482Z,4.94
2018-11-27T04:35:59.504Z,4.87
2018-11-27T04:41:54.481Z,4.18
2018-11-27T04:47:49.492Z,4.41
2018-11-27T04:53:44.532Z,4.2
2018-11-27T04:59:39.517Z,4.2
2018-11-27T05:05:34.539Z,4.31
2018-11-27T05:11:29.487Z,3.98
2018-11-27T05:17:24.526Z,4.76
2018-11-27T05:23:19.519Z,4.46
2018-11-27T05:29:14.521Z,4.1
2018-11-27T05:35:09.529Z,4.57
2018-11-27T05:41:04.508Z,4.8
2018-11-27T05:46:59.531Z,3.5
2018-11-27T05:52:54.518Z,3.6
2018-11-27T05:58:49.581Z,3.46
2018-11-27T06:04:44.522Z,3.85
2018-11-27T06:10:39.575Z,3.81
2018-11-27T06:16:34.544Z,4.03
2018-11-27T06:22:29.547Z,3.86
2018-11-27T06:28:24.532Z,3.85
2018-11-27T06:34:19.586Z,3.75
2018-11-27T06:40:14.550Z,3.86
2018-11-27T06:46:09.562Z,4.1
2018-11-27T06:52:04.557Z,4.81
2018-11-27T06:57:59.587Z,4.88
2018-11-27T07:03:54.552Z,3.93
2018-11-27T07:09:49.585Z,5.83
2018-11-27T07:15:44.606Z,6.33
2018-11-27T07:21:39.620Z,5.64
2018-11-27T07:27:34.581Z,6.02
2018-11-27T07:33:29.584Z,5.63
2018-11-27T07:39:24.574Z,5.53
2018-11-27T07:45:19.573Z,7.33
2018-11-27T07:51:14.606Z,7.5
2018-11-27T07:57:09.586Z,6.58
2018-11-27T08:03:04.613Z,7.09
2018-11-27T08:08:59.589Z,7.9
2018-11-27T08:14:54.688Z,11.81
2018-11-27T08:20:49.593Z,8.01
2018-11-27T08:26:44.656Z,7.36
2018-11-27T08:32:39.617Z,5.56
2018-11-27T08:38:34.603Z,4.53
2018-11-27T08:44:29.601Z,8.53
2018-11-27T08:50:24.643Z,5.2
2018-11-27T08:56:19.606Z,6.61
2018-11-27T09:02:14.640Z,6.49
2018-11-27T09:08:09.646Z,5.71
2018-11-27T09:14:04.640Z,3.65
2018-11-27T09:19:59.634Z,3.94
2018-11-27T09:25:54.640Z,4.06
2018-11-27T09:31:49.624Z,4.42
2018-11-27T09:37:44.656Z,5.86
2018-11-27T09:43:39.685Z,4.77
2018-11-27T09:49:34.679Z,5.04
2018-11-27T09:55:29.686Z,5.28
2018-11-27T10:01:24.692Z,4.58
2018-11-27T10:07:19.680Z,6.01
2018-11-27T10:13:14.675Z,6.5
2018-11-27T10:19:09.687Z,8.23
2018-11-27T10:25:04.708Z,10.86
2018-11-27T10:30:59.658Z,10.88
2018-11-27T10:36:54.682Z,9.37
2018-11-27T10:42:49.780Z,9.03
2018-11-27T10:48:44.709Z,7.87
2018-11-27T10:54:39.678Z,8.81
2018-11-27T11:00:34.716Z,7.12
2018-11-27T11:06:29.704Z,8.85
2018-11-27T11:12:24.683Z,5.53
2018-11-27T11:18:19.698Z,6.89
2018-11-27T11:24:14.708Z,5.48
2018-11-27T11:30:09.705Z,4.18
2018-11-27T11:36:04.710Z,3.91
2018-11-27T11:41:59.729Z,3.73
2018-11-27T11:47:54.718Z,3.3
2018-11-27T11:53:49.711Z,3.26
2018-11-27T11:59:44.702Z,2.51
2018-11-27T12:05:39.726Z,2.33
2018-11-27T12:11:34.738Z,1.18
2018-11-27T12:17:29.754Z,2.43
2018-11-27T12:23:24.744Z,1.15
2018-11-27T12:29:19.767Z,1.2
2018-11-27T12:35:14.732Z,1.14
2018-11-27T12:41:10.259Z,1.54
2018-11-27T12:47:04.746Z,1.44
2018-11-27T12:53:00.783Z,1.36
2018-11-27T12:58:54.748Z,1.82
2018-11-27T13:04:49.763Z,1.92
2018-11-27T13:10:44.750Z,1.56
2018-11-27T13:16:39.811Z,1.67
2018-11-27T13:22:34.757Z,2.17
2018-11-27T13:28:29.769Z,1.9
2018-11-27T13:34:24.778Z,1.88
2018-11-27T13:40:19.787Z,2.02
2018-11-27T13:46:14.790Z,2.17
2018-11-27T13:52:09.803Z,2.35
2018-11-27T13:58:04.778Z,2.71
2018-11-27T14:03:59.782Z,2.84
2018-11-27T14:09:54.806Z,2.27
2018-11-27T14:15:49.815Z,2.49
2018-11-27T14:21:44.839Z,2.09
2018-11-27T14:27:39.814Z,2.35
2018-11-27T14:33:34.838Z,2.41
2018-11-27T14:39:29.844Z,2.24
2018-11-27T14:45:24.813Z,2.37
2018-11-27T14:51:19.821Z,2.25
2018-11-27T14:57:14.829Z,2.36
2018-11-27T15:03:09.825Z,2.4
2018-11-27T15:09:04.835Z,2.04
2018-11-27T15:14:59.823Z,3.04
2018-11-27T15:20:54.870Z,2.02
2018-11-27T15:26:49.843Z,1.84
2018-11-27T15:32:44.851Z,2.13
2018-11-27T15:38:39.846Z,2.19
2018-11-27T15:44:34.839Z,1.82
2018-11-27T15:50:29.873Z,2.4
2018-11-27T15:56:24.850Z,2.31
2018-11-27T16:02:19.871Z,2.74
2018-11-27T16:08:14.864Z,2.72
2018-11-27T16:14:09.862Z,2.3
2018-11-27T16:20:04.916Z,4.75
2018-11-27T16:25:59.887Z,4.23
2018-11-27T16:31:54.885Z,4.21
2018-11-27T16:37:49.897Z,4.96
2018-11-27T16:43:44.900Z,4.84
2018-11-27T16:49:39.881Z,4.13
2018-11-27T16:55:34.945Z,5.12
2018-11-27T17:01:29.914Z,5.59
2018-11-27T17:07:24.938Z,5.5
2018-11-27T17:13:19.928Z,7.11
2018-11-27T17:19:14.914Z,7.61
2018-11-27T17:25:09.925Z,6.03
2018-11-27T17:31:04.967Z,5.5
2018-11-27T17:36:59.925Z,5.99
2018-11-27T17:42:54.951Z,6.5
2018-11-27T17:48:49.962Z,6.37
2018-11-27T17:54:44.951Z,6.95
2018-11-27T18:00:39.940Z,7.54
2018-11-27T18:06:34.950Z,13.47
2018-11-27T18:12:33.574Z,8.21
2018-11-27T18:18:24.960Z,7.85
2018-11-27T18:24:19.954Z,8.29
2018-11-27T18:30:14.971Z,7.97
2018-11-27T18:36:09.945Z,7.89
2018-11-27T18:42:04.960Z,7.51
2018-11-27T18:47:59.962Z,7.79
2018-11-27T18:53:55.199Z,7.77
2018-11-27T19:05:44.999Z,8.91
2018-11-27T19:11:40.012Z,8.17
2018-11-27T19:17:35.068Z,7.62
2018-11-27T19:23:29.980Z,7.55
2018-11-27T19:29:24.979Z,8.68
2018-11-27T19:35:24.955Z,9.95
2018-11-27T19:41:14.979Z,9.61
2018-11-27T19:47:10.017Z,9.23
2018-11-27T19:53:05.018Z,9.34
2018-11-27T19:59:00.051Z,9.89
2018-11-27T20:04:55.001Z,8.18
2018-11-27T20:10:50.002Z,8.08
2018-11-27T20:16:45.006Z,7.89
2018-11-27T20:22:40.007Z,8.5
2018-11-27T20:28:35.010Z,6.93
2018-11-27T20:34:30.075Z,7.05
2018-11-27T20:40:25.049Z,6.59
2018-11-27T20:46:20.062Z,5.19
2018-11-27T20:52:15.049Z,5.29
2018-11-27T20:58:10.080Z,5.31
2018-11-27T21:04:05.039Z,7.07
2018-11-27T21:10:00.039Z,5.81
2018-11-27T21:15:55.120Z,4.82
2018-11-27T21:21:50.037Z,4.93
2018-11-27T21:27:45.072Z,3.65
2018-11-27T21:33:40.048Z,5.27
2018-11-27T21:39:35.102Z,4.85
2018-11-27T21:45:30.074Z,4.3
2018-11-27T21:51:25.090Z,4.06
2018-11-27T21:57:20.095Z,4.3
2018-11-27T22:03:15.099Z,4.51
2018-11-27T22:09:10.076Z,4.08
2018-11-27T22:15:05.071Z,4.54
2018-11-27T22:21:00.115Z,4.15
2018-11-27T22:26:55.081Z,3.97
2018-11-27T22:32:50.080Z,3.59
2018-11-27T22:38:45.093Z,4.48
2018-11-27T22:44:40.143Z,3.95
2018-11-27T22:50:35.157Z,3.34
2018-11-27T22:56:30.099Z,4.85
2018-11-27T23:02:25.091Z,4.43
2018-11-27T23:08:20.097Z,4.16
2018-11-27T23:14:15.129Z,4.55
2018-11-27T23:20:10.100Z,4.83
2018-11-27T23:26:05.129Z,3.86
2018-11-27T23:32:00.120Z,4.78
2018-11-27T23:37:55.129Z,4.45
2018-11-27T23:43:50.108Z,4.1
2018-11-27T23:49:45.163Z,4.31
2018-11-27T23:55:40.156Z,4.66
